Time;durP1;ratioP1;P1;durP2;ratioP2;P2;SDS_P1;SDS_P2;PMS_P1;PMS_P2;Temp;Humidity;BMP_temperature;BMP_pressure;BME280_temperature;BME280_humidity;BME280_pressure;Samples;Min_cycle;Max_cycle;Signal;HPM_P1;HPM_P2
2023/08/24 00:00:04;;;;;;;5.53;2.53;;;;;;;23.54;52.12;101724.63;5048690;27;20054;-63
2023/08/24 00:02:32;;;;;;;4.28;1.98;;;;;;;23.54;52.19;101717.22;5042769;27;20061;-63
2023/08/24 00:05:00;;;;;;;5.18;2.60;;;;;;;23.52;52.25;101713.06;5059422;27;20049;-64
2023/08/24 00:07:28;;;;;;;4.35;2.00;;;;;;;23.52;52.09;101710.34;5046245;27;20042;-62
2023/08/24 00:09:56;;;;;;;4.68;1.98;;;;;;;23.50;52.37;101716.09;5053754;27;20225;-63
2023/08/24 00:12:25;;;;;;;3.75;1.75;;;;;;;23.48;52.40;101718.31;5049821;27;20049;-64
2023/08/24 00:14:54;;;;;;;4.40;1.77;;;;;;;23.47;52.31;101719.44;5044399;27;20551;-64
2023/08/24 00:17:22;;;;;;;4.57;2.33;;;;;;;23.47;52.04;101713.13;5045380;27;20086;-64
2023/08/24 00:19:50;;;;;;;5.97;2.15;;;;;;;23.46;52.43;101709.56;5040149;27;20087;-64
2023/08/24 00:22:18;;;;;;;3.88;1.77;;;;;;;23.45;52.07;101696.94;5049873;27;20054;-64
2023/08/24 00:24:46;;;;;;;5.60;1.95;;;;;;;23.44;52.46;101692.56;5047691;27;20057;-63
2023/08/24 00:27:14;;;;;;;5.22;1.90;;;;;;;23.42;52.26;101697.53;5045502;27;20059;-63
2023/08/24 00:29:42;;;;;;;7.95;2.63;;;;;;;23.41;52.20;101695.88;5038462;27;20045;-63
2023/08/24 00:32:12;;;;;;;5.07;2.05;;;;;;;23.40;51.87;101696.16;5040391;27;20065;-64
2023/08/24 00:34:39;;;;;;;5.85;2.78;;;;;;;23.37;52.50;101690.16;5056057;27;20049;-63
2023/08/24 00:37:07;;;;;;;4.20;2.15;;;;;;;23.36;52.72;101680.28;5051140;27;20418;-63
2023/08/24 00:39:35;;;;;;;6.78;2.35;;;;;;;23.34;52.53;101678.94;5049753;27;20058;-64
2023/08/24 00:42:03;;;;;;;4.18;2.13;;;;;;;23.33;52.63;101689.09;5040927;27;20038;-64
2023/08/24 00:44:31;;;;;;;5.18;2.10;;;;;;;23.31;52.34;101685.81;5055851;27;20079;-63
2023/08/24 00:46:59;;;;;;;4.40;1.85;;;;;;;23.30;52.48;101680.63;5040058;28;20513;-63
2023/08/24 00:49:29;;;;;;;4.18;1.77;;;;;;;23.30;52.47;101683.34;5063150;27;20049;-63
2023/08/24 00:51:57;;;;;;;7.70;2.10;;;;;;;23.27;52.56;101675.69;5052388;27;20120;-63
2023/08/24 00:54:25;;;;;;;4.20;2.13;;;;;;;;;;5053397;27;20053;-64
2023/08/24 00:56:54;;;;;;;4.03;1.90;;;;;;;23.23;52.27;101680.13;5047578;27;20454;-63
2023/08/24 00:59:22;;;;;;;4.28;2.13;;;;;;;23.22;52.81;101683.97;5038229;27;20053;-64
2023/08/24 01:01:51;;;;;;;4.25;2.13;;;;;;;23.20;53.01;101672.47;5068862;27;20554;-64
2023/08/24 01:04:20;;;;;;;5.88;1.90;;;;;;;23.17;53.07;101668.38;5057517;27;20046;-63
2023/08/24 01:06:49;;;;;;;3.78;2.25;;;;;;;23.16;52.61;101680.44;5037902;27;20095;-64
2023/08/24 01:09:17;;;;;;;6.25;2.88;;;;;;;23.15;53.30;101681.56;5048333;27;20050;-64
2023/08/24 01:11:55;;;;;;;3.90;1.90;;;;;;;23.13;53.15;101677.47;5069599;27;20063;-64
2023/08/24 01:14:33;;;;;;;2.92;1.83;;;;;;;23.12;53.15;101675.81;5045808;27;20053;-64
2023/08/24 01:17:05;;;;;;;4.28;2.05;;;;;;;23.10;53.07;101670.63;5044403;27;20557;-64
2023/08/24 01:19:40;;;;;;;5.22;2.42;;;;;;;23.09;53.31;101671.72;5047503;28;20107;-64
2023/08/24 01:22:25;;;;;;;3.72;1.92;;;;;;;23.06;53.14;101677.78;5048813;28;20045;-64
2023/08/24 01:25:01;;;;;;;3.50;1.98;;;;;;;23.04;53.31;101677.25;5058618;27;20105;-65
2023/08/24 01:27:34;;;;;;;3.83;2.00;;;;;;;23.03;52.79;101673.69;5054556;27;20106;-63
2023/08/24 01:30:03;;;;;;;4.68;2.25;;;;;;;23.02;53.16;101673.97;5042482;28;21338;-63
2023/08/24 01:32:32;;;;;;;4.00;2.17;;;;;;;22.90;53.04;101646.09;5051490;27;20046;-63
2023/08/24 01:35:00;;;;;;;3.35;1.75;;;;;;;22.99;53.16;101658.09;5055621;27;20045;-63
2023/08/24 01:37:28;;;;;;;4.00;1.98;;;;;;;22.95;53.45;101652.34;5046587;27;20548;-63
2023/08/24 01:40:05;;;;;;;3.72;2.05;;;;;;;22.95;53.15;101659.75;5055129;27;20049;-63
2023/08/24 01:42:38;;;;;;;4.60;2.20;;;;;;;22.94;53.39;101669.91;5043716;27;20053;-63
2023/08/24 01:45:08;;;;;;;6.35;2.47;;;;;;;22.92;53.77;101674.84;5052069;27;20049;-63
2023/08/24 01:47:38;;;;;;;2.80;1.88;;;;;;;22.91;53.11;101670.47;5037792;28;20058;-63
2023/08/24 01:50:08;;;;;;;4.65;2.50;;;;;;;22.90;53.46;101668.84;5038930;28;20046;-63
2023/08/24 01:52:37;;;;;;;5.57;2.58;;;;;;;22.87;53.49;101658.44;5042049;28;20042;-63
2023/08/24 01:55:05;;;;;;;4.63;1.92;;;;;;;22.88;53.72;101662.00;5040552;28;20050;-64
2023/08/24 01:57:35;;;;;;;3.88;2.47;;;;;;;22.86;53.71;101677.91;5052375;28;20045;-64
2023/08/24 02:00:06;;;;;;;4.68;2.13;;;;;;;22.85;53.41;101673.53;5042388;28;20079;-64
2023/08/24 02:02:36;;;;;;;5.28;2.83;;;;;;;22.84;53.68;101672.72;5039485;28;20046;-64
2023/08/24 02:05:04;;;;;;;4.53;2.25;;;;;;;22.83;53.42;101676.56;5041026;28;20078;-63
2023/08/24 02:07:32;;;;;;;4.30;2.08;;;;;;;22.83;53.21;101670.25;5054823;28;20050;-64
2023/08/24 02:10:00;;;;;;;7.85;2.72;;;;;;;22.82;53.34;101663.97;5042612;28;20042;-64
2023/08/24 02:12:28;;;;;;;6.88;2.20;;;;;;;22.82;53.67;101644.78;5074052;28;20051;-63
2023/08/24 02:14:58;;;;;;;5.57;2.45;;;;;;;22.81;53.63;101634.91;5097958;27;20050;-63
2023/08/24 02:17:27;;;;;;;3.45;2.13;;;;;;;22.79;53.53;101639.00;5043827;27;20051;-63
2023/08/24 02:19:55;;;;;;;7.38;2.42;;;;;;;22.79;53.63;101639.88;5038415;27;20279;-64
2023/08/24 02:22:23;;;;;;;4.22;2.60;;;;;;;22.78;53.70;101642.84;5080651;27;20062;-64
2023/08/24 02:24:52;;;;;;;4.70;2.20;;;;;;;22.78;53.46;101645.59;5056839;27;20067;-64
2023/08/24 02:27:20;;;;;;;3.83;2.05;;;;;;;22.74;53.57;101653.56;5068324;27;20054;-64
2023/08/24 02:29:48;;;;;;;6.70;2.40;;;;;;;22.77;53.46;101649.44;5041597;28;20042;-64
2023/08/24 02:32:17;;;;;;;4.68;2.20;;;;;;;22.76;53.88;101653.28;5050268;27;20049;-64
2023/08/24 02:34:45;;;;;;;5.45;2.45;;;;;;;22.75;53.65;101655.22;5042550;27;20101;-64
2023/08/24 02:37:13;;;;;;;6.43;2.38;;;;;;;22.73;53.50;101643.72;5044538;27;20053;-64
2023/08/24 02:39:41;;;;;;;8.55;2.40;;;;;;;22.72;53.49;101644.81;5049807;27;20046;-64
2023/08/24 02:42:09;;;;;;;4.50;1.83;;;;;;;22.71;53.57;101645.91;5042811;27;20045;-64
2023/08/24 02:44:37;;;;;;;4.93;2.20;;;;;;;22.70;53.75;101636.06;5040306;27;20046;-64
2023/08/24 02:47:06;;;;;;;4.63;2.20;;;;;;;22.69;53.63;101628.94;5058576;27;20074;-64
2023/08/24 02:49:35;;;;;;;7.65;2.75;;;;;;;22.69;54.29;101623.47;5045632;27;20057;-64
2023/08/24 02:52:03;;;;;;;4.18;2.05;;;;;;;22.68;53.76;101617.16;5054671;27;20057;-64
2023/08/24 02:54:31;;;;;;;8.55;2.53;;;;;;;22.67;54.36;101617.44;5069041;27;20107;-64
2023/08/24 02:56:59;;;;;;;5.47;2.85;;;;;;;22.66;53.85;101605.66;5044232;27;20053;-64
2023/08/24 02:59:27;;;;;;;3.45;2.53;;;;;;;22.66;54.29;101599.34;5061901;27;20045;-64
2023/08/24 03:01:55;;;;;;;5.10;2.28;;;;;;;22.64;54.26;101587.88;5048118;27;20080;-64
2023/08/24 03:04:23;;;;;;;6.43;2.42;;;;;;;22.62;54.19;101579.94;5044518;27;20098;-64
2023/08/24 03:06:52;;;;;;;4.00;2.22;;;;;;;22.60;54.17;101576.66;5044601;27;20050;-63
2023/08/24 03:09:20;;;;;;;5.20;2.58;;;;;;;22.60;54.69;101556.66;5042624;27;20102;-64
2023/08/24 03:11:48;;;;;;;5.55;2.80;;;;;;;22.58;54.50;101539.69;5040315;28;20046;-64
2023/08/24 03:14:16;;;;;;;4.85;2.60;;;;;;;22.57;54.72;101530.66;5038644;27;20094;-64
2023/08/24 03:16:44;;;;;;;7.38;2.42;;;;;;;22.55;54.89;101532.84;5044741;27;20082;-64
2023/08/24 03:19:14;;;;;;;5.60;2.90;;;;;;;22.54;55.14;101542.19;5041707;27;20045;-64
2023/08/24 03:21:42;;;;;;;6.28;2.85;;;;;;;22.53;54.89;101559.75;5042224;27;20121;-64
2023/08/24 03:24:12;;;;;;;5.35;2.72;;;;;;;22.52;55.39;101560.84;5058079;27;20052;-64
2023/08/24 03:26:40;;;;;;;4.88;2.80;;;;;;;22.51;55.39;101545.53;5036083;27;20107;-64
2023/08/24 03:29:08;;;;;;;7.50;2.80;;;;;;;22.49;55.37;101531.28;5069652;27;20098;-64
2023/08/24 03:31:36;;;;;;;5.15;2.85;;;;;;;22.49;55.44;101516.78;5042128;28;20106;-64
2023/08/24 03:34:04;;;;;;;6.45;2.75;;;;;;;22.47;56.14;101511.56;5040665;28;20388;-64
2023/08/24 03:36:32;;;;;;;6.80;3.05;;;;;;;22.45;55.89;101500.09;5049269;27;20054;-64
2023/08/24 03:39:00;;;;;;;8.23;3.60;;;;;;;22.44;55.77;101475.72;5057687;27;20464;-63
2023/08/24 03:41:29;;;;;;;6.28;2.40;;;;;;;22.39;55.97;101455.47;5037086;28;20050;-63
2023/08/24 03:43:57;;;;;;;6.18;2.53;;;;;;;22.34;55.89;101441.81;5040765;27;20046;-63
2023/08/24 03:46:25;;;;;;;5.07;2.80;;;;;;;22.39;55.76;101444.53;5039193;28;20049;-63
2023/08/24 03:48:53;;;;;;;6.45;2.83;;;;;;;22.38;55.88;101448.38;5051192;27;20130;-63
2023/08/24 03:51:21;;;;;;;4.57;2.55;;;;;;;22.33;56.20;101429.25;5037680;27;20559;-63
2023/08/24 03:53:48;;;;;;;6.60;2.70;;;;;;;22.35;56.27;101435.25;5050966;27;20079;-63
2023/08/24 03:56:16;;;;;;;6.57;3.10;;;;;;;22.34;56.34;101428.13;5062696;27;20110;-63
2023/08/24 03:58:45;;;;;;;5.05;2.55;;;;;;;22.34;56.37;101428.13;5057043;27;20562;-64
2023/08/24 04:01:13;;;;;;;6.38;3.08;;;;;;;22.32;56.10;101426.78;5060447;27;20110;-64
2023/08/24 04:03:41;;;;;;;5.85;3.13;;;;;;;22.29;56.39;101422.69;5047275;27;20061;-64
2023/08/24 04:06:09;;;;;;;8.90;3.13;;;;;;;22.29;56.34;101413.66;5041598;28;20055;-64
2023/08/24 04:08:37;;;;;;;5.63;3.13;;;;;;;22.27;56.15;101418.59;5044784;27;20102;-63
2023/08/24 04:11:04;;;;;;;7.20;3.60;;;;;;;22.26;56.25;101417.78;5048636;27;20460;-64
2023/08/24 04:13:32;;;;;;;8.07;3.58;;;;;;;22.26;56.39;101422.44;5052917;27;20102;-64
2023/08/24 04:16:01;;;;;;;6.30;4.10;;;;;;;22.25;56.88;101426.28;5053993;27;20047;-64
2023/08/24 04:18:29;;;;;;;10.35;4.32;;;;;;;22.23;56.80;101447.66;5041781;27;20120;-64
2023/08/24 04:20:57;;;;;;;8.50;4.38;;;;;;;22.22;56.97;101460.53;5040153;28;20049;-64
2023/08/24 04:23:26;;;;;;;7.18;4.50;;;;;;;22.23;56.79;101469.56;5044585;27;20109;-64
2023/08/24 04:25:54;;;;;;;10.02;3.80;;;;;;;22.21;56.83;101475.34;5044389;27;20050;-62
2023/08/24 04:28:23;;;;;;;6.05;3.63;;;;;;;22.15;56.60;101471.00;5043165;27;20049;-63
2023/08/24 04:30:52;;;;;;;10.00;4.35;;;;;;;22.20;56.66;101478.34;5047104;27;20477;-64
2023/08/24 04:33:21;;;;;;;8.38;4.18;;;;;;;22.19;56.43;101473.97;5058387;27;20053;-64
2023/08/24 04:35:50;;;;;;;7.15;3.78;;;;;;;22.19;56.61;101473.97;5041150;27;20057;-63
2023/08/24 04:38:19;;;;;;;8.32;3.65;;;;;;;22.13;56.52;101467.72;5045062;27;20055;-64
2023/08/24 04:40:49;;;;;;;6.40;3.67;;;;;;;22.17;56.76;101481.66;5053522;27;20053;-64
2023/08/24 04:43:17;;;;;;;9.02;4.32;;;;;;;22.16;56.84;101486.31;4695741;27;10000306;-64
2023/08/24 04:45:47;;;;;;;8.90;5.32;;;;;;;22.08;57.16;101470.50;5034854;27;20057;-64
2023/08/24 04:48:15;;;;;;;6.55;4.00;;;;;;;22.15;57.08;101483.88;5044184;27;20119;-64
2023/08/24 04:50:45;;;;;;;6.85;3.72;;;;;;;22.15;56.47;101486.59;5041795;28;20124;-65
2023/08/24 04:53:16;;;;;;;9.65;4.28;;;;;;;22.13;56.80;101486.06;5037503;27;20089;-66
2023/08/24 04:55:44;;;;;;;8.68;4.30;;;;;;;22.13;56.71;101486.06;5046070;27;20037;-65
2023/08/24 04:58:14;;;;;;;7.15;3.90;;;;;;;22.11;56.62;101475.41;5110676;27;20206;-65
2023/08/24 05:00:42;;;;;;;6.03;4.00;;;;;;;22.11;56.62;101474.59;5047639;27;20438;-66
2023/08/24 05:03:10;;;;;;;7.95;3.67;;;;;;;22.11;56.83;101485.53;5053422;28;20041;-65
2023/08/24 05:05:39;;;;;;;7.25;4.00;;;;;;;22.08;56.80;101475.97;5051379;27;20035;-62
2023/08/24 05:08:09;;;;;;;9.20;4.97;;;;;;;22.07;57.33;101480.63;5095303;27;20055;-64
2023/08/24 05:10:40;;;;;;;7.57;4.50;;;;;;;22.05;57.06;101482.81;5048850;27;20049;-64
2023/08/24 05:13:08;;;;;;;7.75;4.97;;;;;;;22.05;57.06;101492.97;5088896;27;20053;-64
2023/08/24 05:15:36;;;;;;;7.80;4.32;;;;;;;22.02;57.13;101486.13;5075467;27;20450;-65
2023/08/24 05:18:04;;;;;;;5.90;4.00;;;;;;;21.95;57.14;101482.03;5062669;27;20042;-64
2023/08/24 05:20:33;;;;;;;6.10;3.78;;;;;;;21.91;57.21;101470.84;5099236;27;20042;-64
2023/08/24 05:23:01;;;;;;;6.50;3.95;;;;;;;21.96;57.24;101481.75;5038175;27;20467;-63
2023/08/24 05:25:30;;;;;;;9.30;4.40;;;;;;;21.97;57.41;101480.66;5034129;27;20056;-66
2023/08/24 05:27:58;;;;;;;10.50;4.47;;;;;;;21.96;57.17;101475.47;5041053;27;20075;-65
2023/08/24 05:30:29;;;;;;;6.53;4.80;;;;;;;21.95;57.52;101471.91;5042168;27;20082;-65
2023/08/24 05:32:57;;;;;;;10.70;4.78;;;;;;;21.94;57.47;101474.94;5058626;27;20055;-64
2023/08/24 05:35:27;;;;;;;7.85;4.45;;;;;;;21.94;57.62;101480.41;5042545;27;20141;-64
2023/08/24 05:37:55;;;;;;;7.82;4.55;;;;;;;21.92;57.51;101466.19;5042738;27;20109;-65
2023/08/24 05:40:23;;;;;;;10.82;5.20;;;;;;;21.92;57.46;101468.91;5044886;27;20127;-65
2023/08/24 05:42:53;;;;;;;8.07;4.35;;;;;;;21.90;57.53;101457.44;5029309;28;20491;-63
2023/08/24 05:45:21;;;;;;;9.73;5.00;;;;;;;21.83;57.84;101440.50;5091275;27;20053;-65
2023/08/24 05:47:53;;;;;;;11.93;5.07;;;;;;;21.88;57.73;101437.75;5069198;27;20053;-65
2023/08/24 05:50:21;;;;;;;7.60;4.97;;;;;;;21.87;57.89;101444.31;5078661;27;20559;-65
2023/08/24 05:52:49;;;;;;;7.32;4.75;;;;;;;21.87;57.95;101447.06;5034955;28;20071;-64
2023/08/24 05:55:17;;;;;;;9.45;5.03;;;;;;;21.85;58.24;101436.38;5046853;28;20052;-65
2023/08/24 05:57:45;;;;;;;7.82;4.40;;;;;;;21.85;58.01;101424.63;5063469;28;20459;-66
2023/08/24 06:00:16;;;;;;;8.55;4.93;;;;;;;21.85;57.95;101425.44;5068548;28;20118;-64
2023/08/24 06:02:44;;;;;;;7.72;5.00;;;;;;;21.85;58.06;101417.22;5083952;28;20457;-63
2023/08/24 06:05:12;;;;;;;8.02;4.80;;;;;;;21.86;58.16;101416.13;5050162;28;20516;-63
2023/08/24 06:07:40;;;;;;;9.30;4.88;;;;;;;21.87;57.99;101416.94;5084344;28;20472;-64
2023/08/24 06:10:09;;;;;;;8.52;5.38;;;;;;;21.88;57.94;101407.63;5039234;28;20049;-65
2023/08/24 06:12:38;;;;;;;9.10;4.45;;;;;;;21.89;57.54;101406.53;5075632;28;20150;-64
2023/08/24 06:15:09;;;;;;;8.65;4.35;;;;;;;21.91;57.66;101393.38;5062936;28;20045;-64
2023/08/24 06:17:38;;;;;;;8.80;4.00;;;;;;;21.92;57.14;101382.16;5035284;28;20139;-64
2023/08/24 06:20:10;;;;;;;6.60;4.10;;;;;;;21.94;57.37;101388.16;5056985;28;20053;-65
2023/08/24 06:22:38;;;;;;;6.40;4.72;;;;;;;21.96;57.50;101385.97;5028185;28;20095;-64
2023/08/24 06:25:08;;;;;;;7.13;4.80;;;;;;;21.99;57.29;101393.59;5031149;28;20053;-62
2023/08/24 06:27:36;;;;;;;8.43;4.43;;;;;;;22.02;57.19;101401.28;5049132;28;20050;-64
2023/08/24 06:30:05;;;;;;;7.45;4.10;;;;;;;22.04;57.23;101404.53;5053311;28;20449;-64
2023/08/24 06:32:33;;;;;;;6.93;3.65;;;;;;;22.05;57.21;101402.63;5084043;28;20051;-63
2023/08/24 06:35:03;;;;;;;7.30;4.10;;;;;;;22.07;57.18;101403.97;5060896;28;20052;-62
2023/08/24 06:37:31;;;;;;;7.30;3.60;;;;;;;22.08;57.18;101402.06;5034733;28;20054;-64
2023/08/24 06:39:59;;;;;;;8.45;3.75;;;;;;;22.10;57.03;101399.03;5035012;28;20079;-64
2023/08/24 06:42:27;;;;;;;6.97;3.30;;;;;;;22.12;56.93;101396.81;5045056;28;20189;-63
2023/08/24 06:44:55;;;;;;;8.20;3.88;;;;;;;22.13;56.92;101399.28;5073549;28;20046;-63
2023/08/24 06:47:23;;;;;;;6.05;3.67;;;;;;;22.14;57.02;101394.63;5066897;28;20066;-62
2023/08/24 06:49:51;;;;;;;6.97;3.38;;;;;;;22.16;56.90;101392.41;5044050;28;20042;-63
2023/08/24 06:52:20;;;;;;;8.30;3.88;;;;;;;22.18;56.96;101404.72;5047128;28;20053;-63
2023/08/24 06:54:53;;;;;;;6.45;3.70;;;;;;;22.20;57.26;101396.22;5072873;28;20050;-62
2023/08/24 06:57:21;;;;;;;9.52;3.50;;;;;;;22.22;56.88;101399.47;5047484;28;20521;-63
2023/08/24 06:59:49;;;;;;;8.07;3.67;;;;;;;22.24;57.08;101400.00;5055051;28;20137;-63
2023/08/24 07:02:18;;;;;;;4.43;3.30;;;;;;;22.27;57.09;101394.78;5049886;27;20360;-64
2023/08/24 07:04:46;;;;;;;5.47;3.42;;;;;;;22.28;57.11;101406.56;5048851;27;20075;-68
2023/08/24 07:07:14;;;;;;;9.82;5.15;;;;;;;22.29;57.58;101400.78;5057805;27;20096;-63
2023/08/24 07:09:43;;;;;;;8.70;3.90;;;;;;;22.32;57.94;101400.22;5056301;27;20045;-62
2023/08/24 07:12:11;;;;;;;7.63;4.50;;;;;;;22.33;57.46;101382.69;5034851;28;20565;-63
2023/08/24 07:14:39;;;;;;;8.43;4.00;;;;;;;22.34;57.78;101378.03;5048130;27;20071;-63
2023/08/24 07:17:07;;;;;;;9.50;4.28;;;;;;;22.36;57.75;101370.34;5045910;27;20057;-62
2023/08/24 07:19:35;;;;;;;9.20;4.05;;;;;;;22.37;57.70;101369.22;5042384;27;20050;-62
2023/08/24 07:22:03;;;;;;;7.65;3.80;;;;;;;22.38;57.72;101366.19;5041946;27;20057;-62
2023/08/24 07:24:33;;;;;;;7.13;3.42;;;;;;;22.39;57.66;101362.34;5043108;27;20053;-62
2023/08/24 07:27:13;;;;;;;10.00;3.53;;;;;;;22.41;57.63;101362.06;5082016;27;20115;-63
2023/08/24 07:29:41;;;;;;;7.03;3.70;;;;;;;22.41;57.97;101373.03;5104000;27;20058;-65
2023/08/24 07:32:09;;;;;;;9.60;3.40;;;;;;;22.43;57.92;101370.00;5045510;27;20049;-62
2023/08/24 07:34:37;;;;;;;6.05;3.53;;;;;;;22.43;58.10;101370.81;5077754;27;20065;-63
2023/08/24 07:37:05;;;;;;;7.55;4.00;;;;;;;22.44;57.99;101369.72;5096745;27;20049;-62
2023/08/24 07:39:33;;;;;;;6.88;3.75;;;;;;;22.46;57.91;101361.22;5055312;27;20045;-63
2023/08/24 07:42:02;;;;;;;7.00;3.30;;;;;;;22.44;57.72;101358.75;5044926;28;20061;-63
2023/08/24 07:44:32;;;;;;;7.88;3.05;;;;;;;22.47;58.10;101360.09;5030711;28;20584;-62
2023/08/24 07:47:00;;;;;;;5.88;3.15;;;;;;;22.48;58.28;101359.00;5038354;28;20045;-63
2023/08/24 07:49:28;;;;;;;8.15;3.67;;;;;;;22.49;57.95;101357.88;5042416;28;20149;-63
2023/08/24 07:51:57;;;;;;;5.95;3.22;;;;;;;22.48;57.68;101365.28;5062199;27;20073;-62
2023/08/24 07:54:25;;;;;;;7.05;3.40;;;;;;;22.49;57.85;101371.59;5038395;28;20057;-62
2023/08/24 07:56:52;;;;;;;6.10;3.22;;;;;;;22.49;57.96;101361.44;5032030;28;20049;-62
2023/08/24 07:59:20;;;;;;;5.00;3.28;;;;;;;22.50;57.85;101368.56;5068723;27;20058;-62
2023/08/24 08:01:50;;;;;;;6.65;3.22;;;;;;;22.51;58.42;101361.16;5064484;27;20065;-61
2023/08/24 08:04:18;;;;;;;5.20;3.50;;;;;;;22.52;57.94;101368.28;5084621;27;20503;-61
2023/08/24 08:06:46;;;;;;;7.28;2.80;;;;;;;22.52;57.84;101366.34;5069760;27;20043;-62
2023/08/24 08:09:14;;;;;;;5.88;3.58;;;;;;;22.52;57.87;101354.56;5081667;27;20111;-63
2023/08/24 08:11:42;;;;;;;6.70;2.80;;;;;;;22.53;58.04;101357.03;5058769;27;20111;-62
2023/08/24 08:14:10;;;;;;;5.35;2.90;;;;;;;22.53;58.39;101354.28;5059789;27;20448;-62
2023/08/24 08:16:38;;;;;;;7.00;2.97;;;;;;;22.54;58.24;101361.38;5046274;27;20046;-62
2023/08/24 08:19:07;;;;;;;6.15;3.00;;;;;;;22.55;57.89;101353.97;5064786;27;20049;-63
2023/08/24 08:21:35;;;;;;;8.57;3.40;;;;;;;22.55;57.82;101346.56;5061256;27;20061;-63
2023/08/24 08:24:03;;;;;;;6.40;3.00;;;;;;;22.57;58.38;101340.78;4704925;27;10000279;-64
2023/08/24 08:26:31;;;;;;;6.28;3.10;;;;;;;22.58;57.95;101340.50;5057918;27;20118;-63
2023/08/24 08:28:59;;;;;;;6.30;3.65;;;;;;;22.60;58.25;101337.47;5041033;28;20059;-63
2023/08/24 08:31:27;;;;;;;7.43;3.22;;;;;;;22.59;58.47;101333.91;5040908;28;20106;-63
2023/08/24 08:33:55;;;;;;;8.50;3.17;;;;;;;22.62;58.27;101344.28;5041649;28;20064;-63
2023/08/24 08:36:25;;;;;;;5.68;2.70;;;;;;;22.64;58.23;101342.06;5064415;27;20042;-64
2023/08/24 08:38:53;;;;;;;4.80;2.65;;;;;;;22.60;58.33;101329.25;5040909;28;20045;-63
2023/08/24 08:41:23;;;;;;;7.47;2.97;;;;;;;22.68;58.97;101331.34;5035350;28;20050;-63
2023/08/24 08:43:51;;;;;;;4.95;2.88;;;;;;;22.69;58.41;101320.09;5040693;28;20056;-63
2023/08/24 08:46:19;;;;;;;6.82;3.35;;;;;;;22.71;58.71;101306.09;5040727;28;20057;-64
2023/08/24 08:48:50;;;;;;;6.38;3.17;;;;;;;22.73;58.62;101295.66;5040130;28;20049;-62
2023/08/24 08:51:19;;;;;;;5.78;3.13;;;;;;;22.74;58.56;101286.34;5045065;27;20050;-64
2023/08/24 08:53:49;;;;;;;5.20;2.80;;;;;;;22.74;58.94;101280.88;5045140;27;20054;-64
2023/08/24 08:56:17;;;;;;;5.63;2.67;;;;;;;22.77;58.36;101268.50;5064107;27;20045;-64
2023/08/24 08:58:46;;;;;;;4.25;2.70;;;;;;;22.76;58.44;101259.47;5058359;27;20091;-64
2023/08/24 09:01:15;;;;;;;4.15;2.38;;;;;;;22.78;58.88;101257.25;5095574;27;20082;-63
2023/08/24 09:03:44;;;;;;;6.68;3.17;;;;;;;22.80;58.99;101257.78;5068945;27;20085;-63
2023/08/24 09:06:12;;;;;;;5.43;3.08;;;;;;;22.85;59.50;101248.69;5059219;27;20406;-63
2023/08/24 09:08:40;;;;;;;6.55;2.90;;;;;;;22.86;59.12;101239.38;5040535;28;20046;-63
2023/08/24 09:11:09;;;;;;;11.77;3.58;;;;;;;22.79;58.99;101216.94;5103439;27;20049;-63
2023/08/24 09:13:37;;;;;;;5.47;2.53;;;;;;;22.88;59.20;101207.00;5107779;27;20040;-63
2023/08/24 09:16:08;;;;;;;7.60;2.85;;;;;;;22.89;59.01;101198.47;5040374;28;20045;-65
2023/08/24 09:18:37;;;;;;;4.55;2.47;;;;;;;22.91;59.10;101209.97;5054155;27;20057;-63
2023/08/24 09:21:13;;;;;;;7.20;2.90;;;;;;;22.93;59.00;101201.44;5038115;28;20073;-64
2023/08/24 09:23:46;;;;;;;6.13;2.93;;;;;;;22.95;58.96;101199.22;5041886;28;20053;-63
2023/08/24 09:26:15;;;;;;;6.38;3.33;;;;;;;22.99;59.39;101189.28;5041469;27;20057;-63
2023/08/24 09:28:44;;;;;;;7.38;2.92;;;;;;;22.99;59.28;101198.31;5084868;27;20045;-64
2023/08/24 09:31:13;;;;;;;4.10;3.00;;;;;;;23.00;59.33;101202.69;5063178;27;20075;-63
2023/08/24 09:33:44;;;;;;;7.22;2.80;;;;;;;23.02;59.31;101213.38;5052840;27;20045;-62
2023/08/24 09:36:15;;;;;;;5.22;2.60;;;;;;;23.04;59.10;101222.13;5060827;27;20056;-63
2023/08/24 09:38:48;;;;;;;5.00;2.75;;;;;;;23.05;59.36;101231.97;5046889;27;20512;-63
2023/08/24 09:41:17;;;;;;;5.28;2.70;;;;;;;23.07;58.95;101242.63;5046846;27;20074;-63
2023/08/24 09:43:45;;;;;;;5.88;2.80;;;;;;;23.08;59.40;101263.47;5061646;27;20090;-64
2023/08/24 09:46:20;;;;;;;4.68;2.50;;;;;;;23.11;59.55;101273.84;5048853;28;20069;-64
2023/08/24 09:48:54;;;;;;;6.15;2.78;;;;;;;23.14;59.48;101276.00;5078331;27;20046;-64
2023/08/24 09:51:23;;;;;;;5.45;2.90;;;;;;;23.14;59.53;101260.34;5050970;27;20047;-63
2023/08/24 09:53:52;;;;;;;4.60;2.42;;;;;;;23.25;59.87;101270.06;5045145;28;20054;-64
2023/08/24 09:56:23;;;;;;;4.68;2.63;;;;;;;23.32;59.89;101280.66;5065889;28;20050;-63
2023/08/24 09:58:52;;;;;;;6.50;3.33;;;;;;;23.37;59.14;101289.63;5072426;28;20053;-63
2023/08/24 10:01:21;;;;;;;6.78;3.00;;;;;;;23.34;59.55;101298.47;5060436;28;20068;-64
2023/08/24 10:03:53;;;;;;;4.35;2.40;;;;;;;23.36;59.69;101296.25;5035793;28;20046;-64
2023/08/24 10:06:22;;;;;;;5.07;2.80;;;;;;;23.38;59.18;101298.69;5043252;28;20066;-63
2023/08/24 10:08:55;;;;;;;3.22;2.75;;;;;;;23.52;59.43;101301.50;5056482;28;20041;-63
2023/08/24 10:11:29;;;;;;;5.55;2.97;;;;;;;23.55;59.34;101301.75;5046013;28;20058;-62
2023/08/24 10:14:06;;;;;;;6.65;3.15;;;;;;;23.53;59.22;101297.63;5045181;28;20050;-62
2023/08/24 10:16:36;;;;;;;6.25;2.63;;;;;;;23.48;59.05;101289.50;5045972;28;20052;-63
2023/08/24 10:19:05;;;;;;;7.15;2.97;;;;;;;23.46;58.97;101289.78;5040678;28;20066;-63
2023/08/24 10:21:34;;;;;;;8.85;2.90;;;;;;;23.52;59.08;101282.28;5040815;28;20046;-66
2023/08/24 10:24:03;;;;;;;4.10;2.53;;;;;;;23.49;59.24;101278.22;5042899;28;20108;-64
2023/08/24 10:26:33;;;;;;;6.45;3.20;;;;;;;23.49;59.13;101278.22;5046204;28;20102;-65
2023/08/24 10:29:04;;;;;;;12.07;4.13;;;;;;;23.50;59.36;101290.00;5052836;28;20064;-62
2023/08/24 10:31:32;;;;;;;10.05;3.20;;;;;;;23.50;59.74;101303.72;5064820;28;20098;-62
2023/08/24 10:34:02;;;;;;;11.40;3.95;;;;;;;23.50;59.93;101314.69;5054705;28;20052;-62
2023/08/24 10:36:30;;;;;;;7.78;3.78;;;;;;;23.52;59.82;101318.78;5039886;27;20045;-63
2023/08/24 10:39:05;;;;;;;5.50;3.08;;;;;;;23.54;60.11;101324.00;5075709;27;20156;-63
2023/08/24 10:41:50;;;;;;;6.10;3.78;;;;;;;23.54;60.46;101337.72;5050957;27;20104;-62
2023/08/24 10:44:22;;;;;;;9.38;4.75;;;;;;;23.50;60.59;101336.66;5042318;27;20049;-64
2023/08/24 10:47:13;;;;;;;9.88;4.25;;;;;;;23.52;60.62;101337.16;5052067;27;20054;-64
2023/08/24 10:49:41;;;;;;;7.15;3.38;;;;;;;23.58;60.61;101355.22;5049619;27;20052;-65
2023/08/24 10:52:20;;;;;;;7.25;3.95;;;;;;;23.62;61.38;101331.56;5050378;27;20039;-61
2023/08/24 10:54:49;;;;;;;10.18;4.50;;;;;;;23.75;60.88;101319.84;5035597;27;20041;-63
2023/08/24 10:57:23;;;;;;;7.55;3.97;;;;;;;23.75;60.79;101311.59;5036953;28;20060;-63
2023/08/24 11:00:06;;;;;;;13.68;5.05;;;;;;;23.72;60.88;101311.38;5040394;28;20050;-63
2023/08/24 11:02:53;;;;;;;11.63;4.70;;;;;;;23.75;61.02;101325.31;5048973;27;20045;-63
2023/08/24 11:05:30;;;;;;;11.80;4.20;;;;;;;23.76;60.91;101323.38;5053537;27;20053;-63
2023/08/24 11:08:00;;;;;;;10.48;3.88;;;;;;;23.76;60.88;101315.16;5076574;27;20061;-63
2023/08/24 11:10:32;;;;;;;8.70;3.70;;;;;;;23.75;60.68;101310.78;5062728;27;20054;-62
2023/08/24 11:13:12;;;;;;;14.30;4.97;;;;;;;23.75;60.92;101294.31;5052166;27;20309;-62
2023/08/24 11:15:42;;;;;;;18.75;8.07;;;;;;;23.76;60.71;101280.28;5064048;27;20045;-62
2023/08/24 11:18:25;;;;;;;28.83;9.95;;;;;;;23.76;61.33;101269.31;5063448;27;20049;-62
2023/08/24 11:20:54;;;;;;;20.60;7.25;;;;;;;23.85;61.13;101267.50;5050494;27;20041;-62
2023/08/24 11:23:24;;;;;;;17.17;5.25;;;;;;;23.83;61.08;101271.66;5101419;27;20111;-62
2023/08/24 11:25:56;;;;;;;12.20;4.32;;;;;;;23.89;61.29;101271.28;5053597;27;20049;-62
2023/08/24 11:28:27;;;;;;;9.60;4.07;;;;;;;23.98;60.88;101271.41;5103563;27;20039;-63
2023/08/24 11:30:55;;;;;;;6.53;3.70;;;;;;;23.99;60.56;101262.06;5062321;27;20049;-63
2023/08/24 11:33:31;;;;;;;13.60;5.88;;;;;;;24.02;60.77;101256.78;5067111;27;20062;-63